sensor_id;sensor_type;location;lat;lon;timestamp;P1;durP1;ratioP1;P2;durP2;ratioP2
16115;SDS011;8162;47.104;15.432;2023-11-19T00:02:50;7.03;;;5.27;;
16115;SDS011;8162;47.104;15.432;2023-11-19T00:05:51;7.07;;;5.17;;
16115;SDS011;8162;47.104;15.432;2023-11-19T00:08:52;7.20;;;5.50;;
16115;SDS011;8162;47.104;15.432;2023-11-19T00:11:53;8.10;;;5.37;;
16115;SDS011;8162;47.104;15.432;2023-11-19T00:14:54;5.77;;;4.80;;
16115;SDS011;8162;47.104;15.432;2023-11-19T00:17:55;8.83;;;5.70;;
16115;SDS011;8162;47.104;15.432;2023-11-19T00:20:56;7.40;;;5.33;;
16115;SDS011;8162;47.104;15.432;2023-11-19T00:23:57;6.07;;;4.60;;
16115;SDS011;8162;47.104;15.432;2023-11-19T00:26:58;7.60;;;5.20;;
16115;SDS011;8162;47.104;15.432;2023-11-19T00:29:59;5.63;;;4.37;;
16115;SDS011;8162;47.104;15.432;2023-11-19T00:33:00;5.40;;;4.13;;
16115;SDS011;8162;47.104;15.432;2023-11-19T00:36:01;5.13;;;4.10;;
16115;SDS011;8162;47.104;15.432;2023-11-19T00:39:03;7.13;;;4.67;;
16115;SDS011;8162;47.104;15.432;2023-11-19T00:42:04;5.57;;;4.23;;
16115;SDS011;8162;47.104;15.432;2023-11-19T00:45:05;6.80;;;5.03;;
16115;SDS011;8162;47.104;15.432;2023-11-19T00:48:09;5.13;;;4.40;;
16115;SDS011;8162;47.104;15.432;2023-11-19T00:51:11;5.53;;;4.47;;
16115;SDS011;8162;47.104;15.432;2023-11-19T00:54:13;6.73;;;5.07;;
16115;SDS011;8162;47.104;15.432;2023-11-19T00:57:14;4.87;;;4.33;;
16115;SDS011;8162;47.104;15.432;2023-11-19T01:00:15;6.00;;;4.70;;
16115;SDS011;8162;47.104;15.432;2023-11-19T01:03:18;5.40;;;4.53;;
16115;SDS011;8162;47.104;15.432;2023-11-19T01:06:29;7.03;;;5.10;;
16115;SDS011;8162;47.104;15.432;2023-11-19T01:09:31;7.13;;;4.63;;
16115;SDS011;8162;47.104;15.432;2023-11-19T01:12:35;6.17;;;5.27;;
16115;SDS011;8162;47.104;15.432;2023-11-19T01:15:37;5.90;;;5.00;;
16115;SDS011;8162;47.104;15.432;2023-11-19T01:18:40;6.03;;;4.93;;
16115;SDS011;8162;47.104;15.432;2023-11-19T01:21:41;5.47;;;4.40;;
16115;SDS011;8162;47.104;15.432;2023-11-19T01:24:43;6.47;;;4.53;;
16115;SDS011;8162;47.104;15.432;2023-11-19T01:27:44;5.57;;;4.60;;
16115;SDS011;8162;47.104;15.432;2023-11-19T01:30:45;6.00;;;4.67;;
16115;SDS011;8162;47.104;15.432;2023-11-19T01:33:46;6.27;;;5.00;;
16115;SDS011;8162;47.104;15.432;2023-11-19T01:36:47;5.77;;;5.17;;
16115;SDS011;8162;47.104;15.432;2023-11-19T01:39:48;5.87;;;5.00;;
16115;SDS011;8162;47.104;15.432;2023-11-19T01:42:49;5.63;;;4.83;;
16115;SDS011;8162;47.104;15.432;2023-11-19T01:45:51;6.20;;;4.73;;
16115;SDS011;8162;47.104;15.432;2023-11-19T01:48:52;6.83;;;5.23;;
16115;SDS011;8162;47.104;15.432;2023-11-19T01:51:54;6.17;;;4.97;;
16115;SDS011;8162;47.104;15.432;2023-11-19T01:54:55;5.43;;;4.77;;
16115;SDS011;8162;47.104;15.432;2023-11-19T01:57:58;6.30;;;4.73;;
16115;SDS011;8162;47.104;15.432;2023-11-19T02:01:00;7.53;;;5.20;;
16115;SDS011;8162;47.104;15.432;2023-11-19T02:04:04;5.73;;;4.83;;
16115;SDS011;8162;47.104;15.432;2023-11-19T02:07:06;5.23;;;4.73;;
16115;SDS011;8162;47.104;15.432;2023-11-19T02:10:07;6.10;;;5.33;;
16115;SDS011;8162;47.104;15.432;2023-11-19T02:13:12;5.77;;;5.20;;
16115;SDS011;8162;47.104;15.432;2023-11-19T02:16:14;5.57;;;4.90;;
16115;SDS011;8162;47.104;15.432;2023-11-19T02:19:15;5.47;;;4.70;;
16115;SDS011;8162;47.104;15.432;2023-11-19T02:22:16;7.27;;;5.57;;
16115;SDS011;8162;47.104;15.432;2023-11-19T02:25:19;8.30;;;6.00;;
16115;SDS011;8162;47.104;15.432;2023-11-19T02:28:24;6.27;;;5.03;;
16115;SDS011;8162;47.104;15.432;2023-11-19T02:31:25;6.50;;;5.50;;
16115;SDS011;8162;47.104;15.432;2023-11-19T02:34:27;6.00;;;5.40;;
16115;SDS011;8162;47.104;15.432;2023-11-19T02:37:28;6.27;;;4.93;;
16115;SDS011;8162;47.104;15.432;2023-11-19T02:40:29;6.33;;;5.27;;
16115;SDS011;8162;47.104;15.432;2023-11-19T02:43:31;9.33;;;6.13;;
16115;SDS011;8162;47.104;15.432;2023-11-19T02:46:33;6.30;;;5.37;;
16115;SDS011;8162;47.104;15.432;2023-11-19T02:49:34;5.80;;;5.10;;
16115;SDS011;8162;47.104;15.432;2023-11-19T02:52:37;6.60;;;5.20;;
16115;SDS011;8162;47.104;15.432;2023-11-19T02:55:38;7.13;;;5.00;;
16115;SDS011;8162;47.104;15.432;2023-11-19T02:58:43;5.50;;;5.00;;
16115;SDS011;8162;47.104;15.432;2023-11-19T03:01:44;5.83;;;4.93;;
16115;SDS011;8162;47.104;15.432;2023-11-19T03:04:50;6.00;;;5.30;;
16115;SDS011;8162;47.104;15.432;2023-11-19T03:07:51;6.57;;;5.10;;
16115;SDS011;8162;47.104;15.432;2023-11-19T03:10:52;7.00;;;5.83;;
16115;SDS011;8162;47.104;15.432;2023-11-19T03:13:54;7.53;;;5.57;;
16115;SDS011;8162;47.104;15.432;2023-11-19T03:16:55;6.43;;;5.77;;
16115;SDS011;8162;47.104;15.432;2023-11-19T03:19:56;6.50;;;5.30;;
16115;SDS011;8162;47.104;15.432;2023-11-19T03:22:57;5.97;;;5.07;;
16115;SDS011;8162;47.104;15.432;2023-11-19T03:25:58;6.57;;;5.53;;
16115;SDS011;8162;47.104;15.432;2023-11-19T03:28:59;6.33;;;4.97;;
16115;SDS011;8162;47.104;15.432;2023-11-19T03:32:01;7.80;;;5.07;;
16115;SDS011;8162;47.104;15.432;2023-11-19T03:35:02;7.87;;;5.33;;
16115;SDS011;8162;47.104;15.432;2023-11-19T03:38:04;6.10;;;5.00;;
16115;SDS011;8162;47.104;15.432;2023-11-19T03:41:12;6.63;;;5.60;;
16115;SDS011;8162;47.104;15.432;2023-11-19T03:44:13;6.13;;;5.53;;
16115;SDS011;8162;47.104;15.432;2023-11-19T03:47:14;6.17;;;5.57;;
16115;SDS011;8162;47.104;15.432;2023-11-19T03:50:15;7.93;;;5.63;;
16115;SDS011;8162;47.104;15.432;2023-11-19T03:53:16;5.73;;;5.10;;
16115;SDS011;8162;47.104;15.432;2023-11-19T03:56:18;7.07;;;5.93;;
16115;SDS011;8162;47.104;15.432;2023-11-19T03:59:21;5.80;;;5.20;;
16115;SDS011;8162;47.104;15.432;2023-11-19T04:02:22;8.30;;;5.33;;
16115;SDS011;8162;47.104;15.432;2023-11-19T04:05:23;6.00;;;5.40;;
16115;SDS011;8162;47.104;15.432;2023-11-19T04:08:24;7.10;;;5.93;;
16115;SDS011;8162;47.104;15.432;2023-11-19T04:11:25;5.97;;;5.27;;
16115;SDS011;8162;47.104;15.432;2023-11-19T04:14:26;7.53;;;5.53;;
16115;SDS011;8162;47.104;15.432;2023-11-19T04:17:28;8.00;;;6.10;;
16115;SDS011;8162;47.104;15.432;2023-11-19T04:20:29;6.07;;;5.40;;
16115;SDS011;8162;47.104;15.432;2023-11-19T04:23:31;6.10;;;5.50;;
16115;SDS011;8162;47.104;15.432;2023-11-19T04:26:32;7.73;;;5.20;;
16115;SDS011;8162;47.104;15.432;2023-11-19T04:29:34;6.50;;;5.90;;
16115;SDS011;8162;47.104;15.432;2023-11-19T04:32:35;7.80;;;5.67;;
16115;SDS011;8162;47.104;15.432;2023-11-19T04:35:36;9.03;;;5.83;;
16115;SDS011;8162;47.104;15.432;2023-11-19T04:38:37;7.43;;;5.90;;
16115;SDS011;8162;47.104;15.432;2023-11-19T04:41:51;5.77;;;5.17;;
16115;SDS011;8162;47.104;15.432;2023-11-19T04:44:53;9.27;;;5.60;;
16115;SDS011;8162;47.104;15.432;2023-11-19T04:47:54;5.90;;;4.90;;
16115;SDS011;8162;47.104;15.432;2023-11-19T04:50:55;6.60;;;4.93;;
16115;SDS011;8162;47.104;15.432;2023-11-19T04:53:56;7.20;;;5.30;;
16115;SDS011;8162;47.104;15.432;2023-11-19T04:56:57;6.40;;;5.10;;
16115;SDS011;8162;47.104;15.432;2023-11-19T04:59:58;5.63;;;5.03;;
16115;SDS011;8162;47.104;15.432;2023-11-19T05:02:59;7.10;;;5.80;;
16115;SDS011;8162;47.104;15.432;2023-11-19T05:06:00;6.90;;;5.37;;
16115;SDS011;8162;47.104;15.432;2023-11-19T05:09:01;6.27;;;5.13;;
16115;SDS011;8162;47.104;15.432;2023-11-19T05:12:05;7.73;;;5.30;;
16115;SDS011;8162;47.104;15.432;2023-11-19T05:15:08;6.53;;;5.17;;
16115;SDS011;8162;47.104;15.432;2023-11-19T05:18:11;5.00;;;4.50;;
16115;SDS011;8162;47.104;15.432;2023-11-19T05:21:12;5.20;;;4.70;;
16115;SDS011;8162;47.104;15.432;2023-11-19T05:24:13;6.30;;;5.37;;
16115;SDS011;8162;47.104;15.432;2023-11-19T05:27:14;7.33;;;5.50;;
16115;SDS011;8162;47.104;15.432;2023-11-19T05:30:15;5.70;;;5.10;;
16115;SDS011;8162;47.104;15.432;2023-11-19T05:33:16;7.10;;;5.10;;
16115;SDS011;8162;47.104;15.432;2023-11-19T05:36:17;7.27;;;5.43;;
16115;SDS011;8162;47.104;15.432;2023-11-19T05:39:18;6.10;;;5.50;;
16115;SDS011;8162;47.104;15.432;2023-11-19T05:42:20;6.43;;;5.47;;
16115;SDS011;8162;47.104;15.432;2023-11-19T05:45:21;6.63;;;5.57;;
16115;SDS011;8162;47.104;15.432;2023-11-19T05:48:22;5.00;;;4.37;;
16115;SDS011;8162;47.104;15.432;2023-11-19T05:51:23;5.43;;;4.70;;
16115;SDS011;8162;47.104;15.432;2023-11-19T05:54:24;7.40;;;4.80;;
16115;SDS011;8162;47.104;15.432;2023-11-19T05:57:26;9.03;;;5.57;;
16115;SDS011;8162;47.104;15.432;2023-11-19T06:00:29;6.10;;;5.00;;
16115;SDS011;8162;47.104;15.432;2023-11-19T06:03:30;6.07;;;5.47;;
16115;SDS011;8162;47.104;15.432;2023-11-19T06:06:31;6.40;;;5.30;;
16115;SDS011;8162;47.104;15.432;2023-11-19T06:09:32;5.93;;;4.43;;
16115;SDS011;8162;47.104;15.432;2023-11-19T06:12:34;5.60;;;5.00;;
16115;SDS011;8162;47.104;15.432;2023-11-19T06:15:37;6.53;;;5.33;;
16115;SDS011;8162;47.104;15.432;2023-11-19T06:18:38;6.27;;;4.80;;
16115;SDS011;8162;47.104;15.432;2023-11-19T06:21:41;7.60;;;5.23;;
16115;SDS011;8162;47.104;15.432;2023-11-19T06:24:42;5.40;;;4.73;;
16115;SDS011;8162;47.104;15.432;2023-11-19T06:27:43;5.80;;;4.93;;
16115;SDS011;8162;47.104;15.432;2023-11-19T06:30:44;5.23;;;4.50;;
16115;SDS011;8162;47.104;15.432;2023-11-19T06:33:46;6.47;;;4.60;;
16115;SDS011;8162;47.104;15.432;2023-11-19T06:36:47;6.23;;;4.87;;
16115;SDS011;8162;47.104;15.432;2023-11-19T06:39:48;6.70;;;5.17;;
16115;SDS011;8162;47.104;15.432;2023-11-19T06:42:49;5.90;;;5.10;;
16115;SDS011;8162;47.104;15.432;2023-11-19T06:45:53;5.60;;;4.90;;
16115;SDS011;8162;47.104;15.432;2023-11-19T06:48:54;6.67;;;5.17;;
16115;SDS011;8162;47.104;15.432;2023-11-19T06:51:55;5.47;;;4.87;;
16115;SDS011;8162;47.104;15.432;2023-11-19T06:54:56;5.03;;;4.50;;
16115;SDS011;8162;47.104;15.432;2023-11-19T06:57:59;6.47;;;4.90;;
16115;SDS011;8162;47.104;15.432;2023-11-19T07:01:02;4.90;;;4.40;;
16115;SDS011;8162;47.104;15.432;2023-11-19T07:04:04;8.27;;;5.13;;
16115;SDS011;8162;47.104;15.432;2023-11-19T07:07:09;6.67;;;4.97;;
16115;SDS011;8162;47.104;15.432;2023-11-19T07:10:10;5.37;;;4.87;;
16115;SDS011;8162;47.104;15.432;2023-11-19T07:13:11;6.77;;;5.43;;
16115;SDS011;8162;47.104;15.432;2023-11-19T07:16:13;4.30;;;3.90;;
16115;SDS011;8162;47.104;15.432;2023-11-19T07:19:15;5.33;;;4.80;;
16115;SDS011;8162;47.104;15.432;2023-11-19T07:22:16;5.43;;;4.83;;
16115;SDS011;8162;47.104;15.432;2023-11-19T07:25:17;6.23;;;5.10;;
16115;SDS011;8162;47.104;15.432;2023-11-19T07:28:18;6.13;;;4.87;;
16115;SDS011;8162;47.104;15.432;2023-11-19T07:31:19;6.63;;;4.47;;
16115;SDS011;8162;47.104;15.432;2023-11-19T07:34:20;5.93;;;5.00;;
16115;SDS011;8162;47.104;15.432;2023-11-19T07:37:21;5.53;;;5.03;;
16115;SDS011;8162;47.104;15.432;2023-11-19T07:40:23;5.93;;;5.10;;
16115;SDS011;8162;47.104;15.432;2023-11-19T07:43:24;7.03;;;5.20;;
16115;SDS011;8162;47.104;15.432;2023-11-19T07:46:25;4.43;;;4.00;;
16115;SDS011;8162;47.104;15.432;2023-11-19T07:49:27;5.50;;;4.67;;
16115;SDS011;8162;47.104;15.432;2023-11-19T07:52:28;4.90;;;4.27;;
16115;SDS011;8162;47.104;15.432;2023-11-19T07:55:29;5.07;;;4.50;;
16115;SDS011;8162;47.104;15.432;2023-11-19T07:58:30;4.73;;;4.23;;
16115;SDS011;8162;47.104;15.432;2023-11-19T08:01:31;5.50;;;4.83;;
16115;SDS011;8162;47.104;15.432;2023-11-19T08:04:32;7.37;;;4.73;;
16115;SDS011;8162;47.104;15.432;2023-11-19T08:07:34;4.80;;;4.30;;
16115;SDS011;8162;47.104;15.432;2023-11-19T08:10:36;5.63;;;4.53;;
16115;SDS011;8162;47.104;15.432;2023-11-19T08:13:37;4.70;;;4.07;;
16115;SDS011;8162;47.104;15.432;2023-11-19T08:16:39;5.93;;;4.57;;
16115;SDS011;8162;47.104;15.432;2023-11-19T08:19:40;5.13;;;4.63;;
16115;SDS011;8162;47.104;15.432;2023-11-19T08:22:41;5.60;;;4.47;;
16115;SDS011;8162;47.104;15.432;2023-11-19T08:25:42;5.33;;;4.13;;
16115;SDS011;8162;47.104;15.432;2023-11-19T08:28:44;5.83;;;4.23;;
16115;SDS011;8162;47.104;15.432;2023-11-19T08:31:45;4.60;;;4.10;;
16115;SDS011;8162;47.104;15.432;2023-11-19T08:34:46;4.57;;;4.10;;
16115;SDS011;8162;47.104;15.432;2023-11-19T08:37:47;4.77;;;3.93;;
16115;SDS011;8162;47.104;15.432;2023-11-19T08:40:48;5.83;;;4.27;;
16115;SDS011;8162;47.104;15.432;2023-11-19T08:43:49;5.43;;;4.50;;
16115;SDS011;8162;47.104;15.432;2023-11-19T08:46:51;6.77;;;4.23;;
16115;SDS011;8162;47.104;15.432;2023-11-19T08:49:52;5.53;;;4.23;;
16115;SDS011;8162;47.104;15.432;2023-11-19T08:52:54;6.63;;;4.77;;
16115;SDS011;8162;47.104;15.432;2023-11-19T08:55:55;6.80;;;5.73;;
16115;SDS011;8162;47.104;15.432;2023-11-19T08:58:56;6.00;;;5.20;;
16115;SDS011;8162;47.104;15.432;2023-11-19T09:02:00;6.20;;;5.13;;
16115;SDS011;8162;47.104;15.432;2023-11-19T09:05:02;5.67;;;5.13;;
16115;SDS011;8162;47.104;15.432;2023-11-19T09:08:03;7.87;;;5.33;;
16115;SDS011;8162;47.104;15.432;2023-11-19T09:11:06;6.90;;;5.00;;
16115;SDS011;8162;47.104;15.432;2023-11-19T09:14:08;5.70;;;5.10;;
16115;SDS011;8162;47.104;15.432;2023-11-19T09:17:09;6.43;;;5.30;;
16115;SDS011;8162;47.104;15.432;2023-11-19T09:20:10;5.37;;;4.83;;
16115;SDS011;8162;47.104;15.432;2023-11-19T09:23:14;5.90;;;5.07;;
16115;SDS011;8162;47.104;15.432;2023-11-19T09:26:16;6.23;;;5.03;;
16115;SDS011;8162;47.104;15.432;2023-11-19T09:29:17;5.40;;;4.90;;
16115;SDS011;8162;47.104;15.432;2023-11-19T09:32:17;5.60;;;4.77;;
16115;SDS011;8162;47.104;15.432;2023-11-19T09:35:18;5.07;;;4.47;;
16115;SDS011;8162;47.104;15.432;2023-11-19T09:38:19;5.20;;;4.20;;
16115;SDS011;8162;47.104;15.432;2023-11-19T09:41:19;5.77;;;4.93;;
16115;SDS011;8162;47.104;15.432;2023-11-19T09:44:20;5.40;;;4.50;;
16115;SDS011;8162;47.104;15.432;2023-11-19T09:47:21;5.53;;;4.10;;
16115;SDS011;8162;47.104;15.432;2023-11-19T09:50:22;4.83;;;4.20;;
16115;SDS011;8162;47.104;15.432;2023-11-19T09:53:23;5.90;;;4.80;;
16115;SDS011;8162;47.104;15.432;2023-11-19T09:56:24;4.97;;;4.43;;
16115;SDS011;8162;47.104;15.432;2023-11-19T09:59:25;6.80;;;5.73;;
16115;SDS011;8162;47.104;15.432;2023-11-19T10:02:26;5.97;;;5.30;;
16115;SDS011;8162;47.104;15.432;2023-11-19T10:05:31;6.40;;;4.93;;
16115;SDS011;8162;47.104;15.432;2023-11-19T10:08:33;6.17;;;5.03;;
16115;SDS011;8162;47.104;15.432;2023-11-19T10:11:34;6.17;;;3.90;;
16115;SDS011;8162;47.104;15.432;2023-11-19T10:14:34;6.47;;;4.73;;
16115;SDS011;8162;47.104;15.432;2023-11-19T10:17:39;5.70;;;4.73;;
16115;SDS011;8162;47.104;15.432;2023-11-19T10:20:40;6.03;;;5.30;;
16115;SDS011;8162;47.104;15.432;2023-11-19T10:26:50;6.40;;;5.37;;
16115;SDS011;8162;47.104;15.432;2023-11-19T10:29:51;7.67;;;4.73;;
16115;SDS011;8162;47.104;15.432;2023-11-19T10:33:02;7.23;;;4.57;;
16115;SDS011;8162;47.104;15.432;2023-11-19T10:36:05;7.27;;;5.47;;
16115;SDS011;8162;47.104;15.432;2023-11-19T10:39:07;5.93;;;5.33;;
16115;SDS011;8162;47.104;15.432;2023-11-19T10:42:15;7.30;;;5.03;;
16115;SDS011;8162;47.104;15.432;2023-11-19T10:45:23;6.00;;;5.20;;
16115;SDS011;8162;47.104;15.432;2023-11-19T10:48:24;5.20;;;4.67;;
16115;SDS011;8162;47.104;15.432;2023-11-19T10:51:25;5.77;;;5.17;;
16115;SDS011;8162;47.104;15.432;2023-11-19T10:54:27;5.77;;;5.20;;
16115;SDS011;8162;47.104;15.432;2023-11-19T10:57:28;4.57;;;4.17;;
16115;SDS011;8162;47.104;15.432;2023-11-19T11:00:54;6.13;;;5.20;;
16115;SDS011;8162;47.104;15.432;2023-11-19T11:03:57;5.27;;;4.77;;
16115;SDS011;8162;47.104;15.432;2023-11-19T11:07:00;5.87;;;5.00;;
16115;SDS011;8162;47.104;15.432;2023-11-19T11:10:02;6.73;;;5.10;;
16115;SDS011;8162;47.104;15.432;2023-11-19T11:13:06;5.80;;;5.17;;
16115;SDS011;8162;47.104;15.432;2023-11-19T11:16:07;6.63;;;4.40;;
16115;SDS011;8162;47.104;15.432;2023-11-19T11:19:09;4.93;;;4.43;;
16115;SDS011;8162;47.104;15.432;2023-11-19T11:22:10;6.00;;;5.20;;
16115;SDS011;8162;47.104;15.432;2023-11-19T11:36:16;6.57;;;5.07;;
16115;SDS011;8162;47.104;15.432;2023-11-19T11:38:51;5.90;;;4.83;;
16115;SDS011;8162;47.104;15.432;2023-11-19T11:45:35;4.73;;;4.23;;
16115;SDS011;8162;47.104;15.432;2023-11-19T11:48:40;5.07;;;3.90;;
16115;SDS011;8162;47.104;15.432;2023-11-19T11:54:48;5.07;;;4.10;;
16115;SDS011;8162;47.104;15.432;2023-11-19T11:57:49;4.77;;;4.10;;
16115;SDS011;8162;47.104;15.432;2023-11-19T12:00:51;4.83;;;4.33;;
16115;SDS011;8162;47.104;15.432;2023-11-19T12:03:52;5.53;;;4.43;;
16115;SDS011;8162;47.104;15.432;2023-11-19T12:07:02;5.13;;;4.13;;
16115;SDS011;8162;47.104;15.432;2023-11-19T12:10:07;5.07;;;4.67;;
16115;SDS011;8162;47.104;15.432;2023-11-19T12:13:09;6.50;;;4.47;;
16115;SDS011;8162;47.104;15.432;2023-11-19T12:16:12;6.00;;;4.90;;
16115;SDS011;8162;47.104;15.432;2023-11-19T12:19:13;5.63;;;4.87;;
16115;SDS011;8162;47.104;15.432;2023-11-19T12:22:14;7.03;;;5.33;;
16115;SDS011;8162;47.104;15.432;2023-11-19T12:25:15;4.40;;;4.00;;
16115;SDS011;8162;47.104;15.432;2023-11-19T12:28:17;7.37;;;5.00;;
16115;SDS011;8162;47.104;15.432;2023-11-19T12:31:18;5.27;;;4.67;;
16115;SDS011;8162;47.104;15.432;2023-11-19T12:34:19;6.67;;;4.90;;
16115;SDS011;8162;47.104;15.432;2023-11-19T12:37:23;5.63;;;5.13;;
16115;SDS011;8162;47.104;15.432;2023-11-19T12:40:25;6.57;;;4.60;;
16115;SDS011;8162;47.104;15.432;2023-11-19T12:43:26;6.00;;;4.93;;
16115;SDS011;8162;47.104;15.432;2023-11-19T12:46:27;5.40;;;4.90;;
16115;SDS011;8162;47.104;15.432;2023-11-19T12:49:28;5.20;;;4.60;;
16115;SDS011;8162;47.104;15.432;2023-11-19T12:52:29;5.87;;;5.13;;
16115;SDS011;8162;47.104;15.432;2023-11-19T12:55:31;5.53;;;5.03;;
16115;SDS011;8162;47.104;15.432;2023-11-19T12:58:33;6.80;;;4.93;;
16115;SDS011;8162;47.104;15.432;2023-11-19T13:01:35;5.67;;;4.80;;
16115;SDS011;8162;47.104;15.432;2023-11-19T13:04:38;6.47;;;5.23;;
16115;SDS011;8162;47.104;15.432;2023-11-19T13:07:39;7.40;;;5.17;;
16115;SDS011;8162;47.104;15.432;2023-11-19T13:16:55;6.27;;;5.20;;
16115;SDS011;8162;47.104;15.432;2023-11-19T13:19:56;6.07;;;4.77;;
16115;SDS011;8162;47.104;15.432;2023-11-19T13:23:01;6.10;;;5.07;;
16115;SDS011;8162;47.104;15.432;2023-11-19T13:26:02;5.77;;;5.07;;
16115;SDS011;8162;47.104;15.432;2023-11-19T13:29:04;7.00;;;5.83;;
16115;SDS011;8162;47.104;15.432;2023-11-19T13:32:05;6.10;;;5.50;;
16115;SDS011;8162;47.104;15.432;2023-11-19T13:35:06;5.83;;;4.63;;
16115;SDS011;8162;47.104;15.432;2023-11-19T13:38:08;4.90;;;4.37;;
16115;SDS011;8162;47.104;15.432;2023-11-19T13:41:10;5.50;;;4.67;;
16115;SDS011;8162;47.104;15.432;2023-11-19T13:44:12;4.93;;;4.47;;
16115;SDS011;8162;47.104;15.432;2023-11-19T13:47:12;5.37;;;4.80;;
16115;SDS011;8162;47.104;15.432;2023-11-19T13:50:14;5.23;;;3.87;;
16115;SDS011;8162;47.104;15.432;2023-11-19T13:53:15;5.30;;;4.00;;
16115;SDS011;8162;47.104;15.432;2023-11-19T13:56:16;4.40;;;4.00;;
16115;SDS011;8162;47.104;15.432;2023-11-19T13:59:17;5.13;;;4.57;;
16115;SDS011;8162;47.104;15.432;2023-11-19T14:02:18;5.97;;;4.43;;
16115;SDS011;8162;47.104;15.432;2023-11-19T14:05:18;4.50;;;3.67;;
16115;SDS011;8162;47.104;15.432;2023-11-19T14:08:19;4.17;;;3.40;;
16115;SDS011;8162;47.104;15.432;2023-11-19T14:11:20;4.87;;;3.77;;
16115;SDS011;8162;47.104;15.432;2023-11-19T14:14:20;4.43;;;3.70;;
16115;SDS011;8162;47.104;15.432;2023-11-19T14:17:21;5.13;;;3.70;;
16115;SDS011;8162;47.104;15.432;2023-11-19T14:20:22;3.53;;;3.23;;
16115;SDS011;8162;47.104;15.432;2023-11-19T14:23:23;5.03;;;4.07;;
16115;SDS011;8162;47.104;15.432;2023-11-19T14:26:25;3.87;;;3.40;;
16115;SDS011;8162;47.104;15.432;2023-11-19T14:29:26;4.47;;;3.80;;
16115;SDS011;8162;47.104;15.432;2023-11-19T14:32:29;4.97;;;4.03;;
16115;SDS011;8162;47.104;15.432;2023-11-19T14:35:30;4.67;;;3.70;;
16115;SDS011;8162;47.104;15.432;2023-11-19T14:38:32;3.77;;;3.37;;
16115;SDS011;8162;47.104;15.432;2023-11-19T14:41:33;4.10;;;3.57;;
16115;SDS011;8162;47.104;15.432;2023-11-19T14:44:34;4.20;;;3.40;;
16115;SDS011;8162;47.104;15.432;2023-11-19T14:47:34;4.73;;;3.73;;
16115;SDS011;8162;47.104;15.432;2023-11-19T14:50:35;5.17;;;4.20;;
16115;SDS011;8162;47.104;15.432;2023-11-19T14:53:36;4.43;;;3.40;;
16115;SDS011;8162;47.104;15.432;2023-11-19T14:56:37;3.83;;;3.33;;
16115;SDS011;8162;47.104;15.432;2023-11-19T14:59:38;5.00;;;3.40;;
16115;SDS011;8162;47.104;15.432;2023-11-19T15:02:40;4.37;;;3.50;;
16115;SDS011;8162;47.104;15.432;2023-11-19T15:05:41;5.37;;;4.43;;
16115;SDS011;8162;47.104;15.432;2023-11-19T15:08:42;6.83;;;6.13;;
16115;SDS011;8162;47.104;15.432;2023-11-19T15:11:44;6.83;;;5.70;;
16115;SDS011;8162;47.104;15.432;2023-11-19T15:14:48;5.97;;;5.37;;
16115;SDS011;8162;47.104;15.432;2023-11-19T15:17:49;5.70;;;5.07;;
16115;SDS011;8162;47.104;15.432;2023-11-19T15:20:49;6.33;;;5.23;;
16115;SDS011;8162;47.104;15.432;2023-11-19T15:23:50;6.37;;;5.40;;
16115;SDS011;8162;47.104;15.432;2023-11-19T15:26:52;7.47;;;5.50;;
16115;SDS011;8162;47.104;15.432;2023-11-19T15:29:52;9.10;;;5.87;;
16115;SDS011;8162;47.104;15.432;2023-11-19T15:32:53;6.37;;;4.80;;
16115;SDS011;8162;47.104;15.432;2023-11-19T15:35:55;4.80;;;4.23;;
16115;SDS011;8162;47.104;15.432;2023-11-19T15:38:56;4.80;;;4.30;;
16115;SDS011;8162;47.104;15.432;2023-11-19T15:41:57;5.07;;;4.20;;
16115;SDS011;8162;47.104;15.432;2023-11-19T15:44:59;7.97;;;4.83;;
16115;SDS011;8162;47.104;15.432;2023-11-19T15:48:00;6.27;;;5.10;;
16115;SDS011;8162;47.104;15.432;2023-11-19T15:51:01;6.50;;;5.13;;
16115;SDS011;8162;47.104;15.432;2023-11-19T15:54:03;10.70;;;6.13;;
16115;SDS011;8162;47.104;15.432;2023-11-19T15:57:05;7.67;;;5.63;;
16115;SDS011;8162;47.104;15.432;2023-11-19T16:00:06;9.03;;;5.47;;
16115;SDS011;8162;47.104;15.432;2023-11-19T16:03:10;7.63;;;5.03;;
16115;SDS011;8162;47.104;15.432;2023-11-19T16:06:12;6.53;;;5.17;;
16115;SDS011;8162;47.104;15.432;2023-11-19T16:09:13;7.87;;;5.40;;
16115;SDS011;8162;47.104;15.432;2023-11-19T16:12:15;6.53;;;4.93;;
16115;SDS011;8162;47.104;15.432;2023-11-19T16:15:16;7.53;;;5.67;;
16115;SDS011;8162;47.104;15.432;2023-11-19T16:18:17;6.43;;;5.10;;
16115;SDS011;8162;47.104;15.432;2023-11-19T16:21:18;4.70;;;4.30;;
16115;SDS011;8162;47.104;15.432;2023-11-19T16:24:18;5.97;;;5.37;;
16115;SDS011;8162;47.104;15.432;2023-11-19T16:27:19;6.00;;;5.37;;
16115;SDS011;8162;47.104;15.432;2023-11-19T16:30:20;5.03;;;4.50;;
16115;SDS011;8162;47.104;15.432;2023-11-19T16:33:22;7.33;;;5.40;;
16115;SDS011;8162;47.104;15.432;2023-11-19T16:36:23;7.13;;;5.27;;
16115;SDS011;8162;47.104;15.432;2023-11-19T16:39:23;6.33;;;5.03;;
16115;SDS011;8162;47.104;15.432;2023-11-19T16:42:24;8.33;;;6.73;;
16115;SDS011;8162;47.104;15.432;2023-11-19T16:45:25;8.90;;;6.70;;
16115;SDS011;8162;47.104;15.432;2023-11-19T16:48:26;7.67;;;5.50;;
16115;SDS011;8162;47.104;15.432;2023-11-19T16:51:28;6.00;;;5.10;;
16115;SDS011;8162;47.104;15.432;2023-11-19T16:54:28;6.70;;;5.33;;
16115;SDS011;8162;47.104;15.432;2023-11-19T16:57:30;7.27;;;5.50;;
16115;SDS011;8162;47.104;15.432;2023-11-19T17:00:31;6.57;;;5.47;;
16115;SDS011;8162;47.104;15.432;2023-11-19T17:03:31;6.50;;;4.90;;
16115;SDS011;8162;47.104;15.432;2023-11-19T17:06:32;6.67;;;5.03;;
16115;SDS011;8162;47.104;15.432;2023-11-19T17:09:33;6.77;;;5.20;;
16115;SDS011;8162;47.104;15.432;2023-11-19T17:12:34;6.47;;;5.37;;
16115;SDS011;8162;47.104;15.432;2023-11-19T17:15:34;7.93;;;5.63;;
16115;SDS011;8162;47.104;15.432;2023-11-19T17:18:35;6.63;;;5.63;;
16115;SDS011;8162;47.104;15.432;2023-11-19T17:21:37;6.77;;;5.60;;
16115;SDS011;8162;47.104;15.432;2023-11-19T17:24:38;7.80;;;6.20;;
16115;SDS011;8162;47.104;15.432;2023-11-19T17:27:39;9.13;;;6.20;;
16115;SDS011;8162;47.104;15.432;2023-11-19T17:30:40;7.17;;;5.67;;
16115;SDS011;8162;47.104;15.432;2023-11-19T17:33:41;8.47;;;5.90;;
16115;SDS011;8162;47.104;15.432;2023-11-19T17:36:42;8.10;;;6.23;;
16115;SDS011;8162;47.104;15.432;2023-11-19T17:39:43;6.50;;;5.70;;
16115;SDS011;8162;47.104;15.432;2023-11-19T17:42:44;8.10;;;5.27;;
16115;SDS011;8162;47.104;15.432;2023-11-19T17:45:45;8.50;;;6.43;;
16115;SDS011;8162;47.104;15.432;2023-11-19T17:48:46;6.93;;;4.70;;
16115;SDS011;8162;47.104;15.432;2023-11-19T17:51:47;9.37;;;5.50;;
16115;SDS011;8162;47.104;15.432;2023-11-19T17:54:49;10.33;;;5.53;;
16115;SDS011;8162;47.104;15.432;2023-11-19T17:57:50;7.37;;;5.90;;
16115;SDS011;8162;47.104;15.432;2023-11-19T18:00:51;6.00;;;5.20;;
16115;SDS011;8162;47.104;15.432;2023-11-19T18:03:52;7.23;;;5.90;;
16115;SDS011;8162;47.104;15.432;2023-11-19T18:06:53;7.47;;;6.03;;
16115;SDS011;8162;47.104;15.432;2023-11-19T18:09:54;6.77;;;6.07;;
16115;SDS011;8162;47.104;15.432;2023-11-19T18:12:55;6.13;;;5.23;;
16115;SDS011;8162;47.104;15.432;2023-11-19T18:15:56;7.20;;;5.20;;
16115;SDS011;8162;47.104;15.432;2023-11-19T18:18:57;5.63;;;5.13;;
16115;SDS011;8162;47.104;15.432;2023-11-19T18:21:59;7.20;;;6.00;;
16115;SDS011;8162;47.104;15.432;2023-11-19T18:25:00;6.53;;;5.30;;
16115;SDS011;8162;47.104;15.432;2023-11-19T18:28:01;6.37;;;5.53;;
16115;SDS011;8162;47.104;15.432;2023-11-19T18:31:02;6.00;;;5.30;;
16115;SDS011;8162;47.104;15.432;2023-11-19T18:34:05;6.27;;;5.53;;
16115;SDS011;8162;47.104;15.432;2023-11-19T18:37:07;8.90;;;6.13;;
16115;SDS011;8162;47.104;15.432;2023-11-19T18:40:09;6.83;;;5.93;;
16115;SDS011;8162;47.104;15.432;2023-11-19T18:43:13;9.63;;;5.70;;